Northsea Beta — 9HA2594 — position and weather

sailwx.info

Track history (hours):
 
Tides and Currents Weather Stations Pressure Air Temp Water Temp Dewpoint Dewpoint Depression Visibility Wind Speed Wind Dir Waves Ship Positions

Northsea Beta

Last reported at 2014-Nov-22 09:16 UTC. Time now 2014-Nov-22 21:31 UTC.
Position N 36°56' W 009°40'.

Length 110 m; draft 7.9 m.

Type: Ship (hazmat cat B). MMSI: 248970000.

Date/timePositionNaut miles runAvg speedWind from/ knotsBaromVisibWave heightAir tempDewpointWater temp
2014-Nov-22 09:16N 36°56' W 009°40'2910.7
2014-Nov-22 06:32N 37°24' W 009°48'1311.0
2014-Nov-22 05:21N 37°37' W 009°52'1110.8
2014-Nov-22 04:18N 37°48' W 009°55'  
2014-Nov-18 03:11N 50°43' E 000°53'3212.0
2014-Nov-18 00:33N 51°04' E 001°31'1010.6
2014-Nov-17 23:33N 51°11' E 001°42'10 9.7
2014-Nov-17 22:33N 51°19' E 001°52'10 9.6
2014-Nov-17 21:33N 51°27' E 001°59'1110.4
2014-Nov-17 20:31N 51°36' E 002°10'6710.4
2014-Nov-17 14:04N 52°02' E 003°50'5 9.5
2014-Nov-17 13:33N 52°01' E 003°58'1111.5
2014-Nov-17 12:33N 51°55' E 004°14'3 0.2
2014-Nov-16 21:18N 51°53' E 004°17'0 0.0
2014-Nov-16 10:12N 51°53' E 004°17'0 0.0
2014-Nov-16 09:24N 51°53' E 004°17'1 0.8
2014-Nov-16 08:33N 51°54' E 004°17'1110.9
2014-Nov-16 07:33N 51°59' E 004°02'10 9.7
2014-Nov-16 06:31N 51°57' E 003°46'0 0.1
2014-Nov-16 03:30N 51°57' E 003°47'0 0.0
2014-Nov-15 22:06N 51°57' E 003°47'0 0.0
2014-Nov-15 21:15N 51°57' E 003°47'0 0.0
2014-Nov-15 19:24N 51°57' E 003°47'0 0.0
2014-Nov-15 17:27N 51°57' E 003°47'0 0.1
2014-Nov-15 16:30N 51°57' E 003°47'0 0.0
2014-Nov-15 10:33N 51°57' E 003°47'0 0.0
2014-Nov-15 08:27N 51°57' E 003°47'0 0.0
2014-Nov-15 06:09N 51°57' E 003°47'10 1.0
2014-Nov-14 19:31N 52°07' E 003°46'1110.6
2014-Nov-14 18:31N 52°18' E 003°47'2511.0
2014-Nov-14 16:15N 52°42' E 003°55'6110.7
2014-Nov-14 10:32N 53°32' E 004°54'1111.0
2014-Nov-14 09:33N 53°36' E 005°11'1111.5
2014-Nov-14 08:33N 53°40' E 005°29'1312.4
2014-Nov-14 07:32N 53°44' E 005°49'6212.5
2014-Nov-14 02:33N 54°00' E 007°31'1111.2
2014-Nov-14 01:33N 54°01' E 007°50'1111.0
2014-Nov-14 00:32N 54°01' E 008°09'1010.7
2014-Nov-13 23:33N 53°59' E 008°27'1212.3
2014-Nov-13 22:33N 53°52' E 008°44'1413.9
2014-Nov-13 21:33N 53°53' E 009°07'1211.9
2014-Nov-13 20:33N 53°46' E 009°24'1312.4
2014-Nov-13 19:32N 53°36' E 009°36'1010.0
2014-Nov-13 18:34N 53°33' E 009°52'4 4.1
2014-Nov-13 17:32N 53°30' E 009°58'0 0.0
2014-Nov-13 16:31N 53°30' E 009°58'0 0.0
2014-Nov-13 15:32N 53°30' E 009°58'0 0.0
2014-Nov-13 14:32N 53°30' E 009°58'0 0.0
2014-Nov-13 13:25N 53°30' E 009°58'0 0.0
2014-Nov-13 12:32N 53°30' E 009°58'0 0.0
2014-Nov-13 11:28N 53°30' E 009°58'0 0.0
2014-Nov-13 10:32N 53°30' E 009°58'0 0.0
2014-Nov-13 09:32N 53°30' E 009°58'0 0.0
2014-Nov-13 08:28N 53°30' E 009°58'0 0.0
2014-Nov-13 07:31N 53°30' E 009°58'0 0.0
2014-Nov-13 06:22N 53°30' E 009°58'0 0.0
2014-Nov-13 05:28N 53°30' E 009°58'0 0.0
2014-Nov-13 04:28N 53°30' E 009°58'0 0.0
2014-Nov-13 03:28N 53°30' E 009°58'0 0.0
2014-Nov-13 02:25N 53°30' E 009°58'0 0.0
2014-Nov-13 01:28N 53°30' E 009°58'0 0.0
2014-Nov-13 00:28N 53°30' E 009°58'0 0.0
2014-Nov-12 23:28N 53°30' E 009°58'0 0.0
2014-Nov-12 22:28N 53°30' E 009°58'0 0.0
2014-Nov-12 21:28N 53°30' E 009°58'0 0.0
2014-Nov-12 20:32N 53°30' E 009°58'0 0.0
2014-Nov-12 19:32N 53°30' E 009°58'0 0.0
2014-Nov-12 18:32N 53°30' E 009°58'0 0.0
2014-Nov-12 17:28N 53°30' E 009°58'0 0.0
2014-Nov-12 16:28N 53°30' E 009°58'3 2.8
2014-Nov-12 15:33N 53°32' E 009°55'1312.2
2014-Nov-12 14:27N 53°37' E 009°34'1112.8
2014-Nov-12 13:33N 53°46' E 009°23'1110.9
2014-Nov-12 12:33N 53°53' E 009°08'1111.0
2014-Nov-12 11:33N 53°50' E 008°50'10 9.6
2014-Nov-12 10:33N 53°57' E 008°38'  
Track history (hours):
 
Tides and Currents Weather Stations Pressure Air Temp Water Temp Dewpoint Dewpoint Depression Visibility Wind Speed Wind Dir Waves Ship Positions

Northsea Beta

Last reported at 2014-Nov-22 09:16 UTC. Time now 2014-Nov-22 21:31 UTC.
Position N 36°56' W 009°40'.

Length 110 m; draft 7.9 m.

Type: Ship (hazmat cat B). MMSI: 248970000.

Date/timePositionNaut miles runAvg speedWind from/ knotsBaromVisibWave heightAir tempDewpointWater temp
2014-Nov-22 09:16N 36°56' W 009°40'2910.7
2014-Nov-22 06:32N 37°24' W 009°48'1311.0
2014-Nov-22 05:21N 37°37' W 009°52'1110.8
2014-Nov-22 04:18N 37°48' W 009°55'  
2014-Nov-18 03:11N 50°43' E 000°53'3212.0
2014-Nov-18 00:33N 51°04' E 001°31'1010.6
2014-Nov-17 23:33N 51°11' E 001°42'10 9.7
2014-Nov-17 22:33N 51°19' E 001°52'10 9.6
2014-Nov-17 21:33N 51°27' E 001°59'1110.4
2014-Nov-17 20:31N 51°36' E 002°10'6710.4
2014-Nov-17 14:04N 52°02' E 003°50'5 9.5
2014-Nov-17 13:33N 52°01' E 003°58'1111.5
2014-Nov-17 12:33N 51°55' E 004°14'3 0.2
2014-Nov-16 21:18N 51°53' E 004°17'0 0.0
2014-Nov-16 10:12N 51°53' E 004°17'0 0.0
2014-Nov-16 09:24N 51°53' E 004°17'1 0.8
2014-Nov-16 08:33N 51°54' E 004°17'1110.9
2014-Nov-16 07:33N 51°59' E 004°02'10 9.7
2014-Nov-16 06:31N 51°57' E 003°46'0 0.1
2014-Nov-16 03:30N 51°57' E 003°47'0 0.0
2014-Nov-15 22:06N 51°57' E 003°47'0 0.0
2014-Nov-15 21:15N 51°57' E 003°47'0 0.0
2014-Nov-15 19:24N 51°57' E 003°47'0 0.0
2014-Nov-15 17:27N 51°57' E 003°47'0 0.1
2014-Nov-15 16:30N 51°57' E 003°47'0 0.0
2014-Nov-15 10:33N 51°57' E 003°47'0 0.0
2014-Nov-15 08:27N 51°57' E 003°47'0 0.0
2014-Nov-15 06:09N 51°57' E 003°47'10 1.0
2014-Nov-14 19:31N 52°07' E 003°46'1110.6
2014-Nov-14 18:31N 52°18' E 003°47'2511.0
2014-Nov-14 16:15N 52°42' E 003°55'6110.7
2014-Nov-14 10:32N 53°32' E 004°54'1111.0
2014-Nov-14 09:33N 53°36' E 005°11'1111.5
2014-Nov-14 08:33N 53°40' E 005°29'1312.4
2014-Nov-14 07:32N 53°44' E 005°49'6212.5
2014-Nov-14 02:33N 54°00' E 007°31'1111.2
2014-Nov-14 01:33N 54°01' E 007°50'1111.0
2014-Nov-14 00:32N 54°01' E 008°09'1010.7
2014-Nov-13 23:33N 53°59' E 008°27'1212.3
2014-Nov-13 22:33N 53°52' E 008°44'1413.9
2014-Nov-13 21:33N 53°53' E 009°07'1211.9
2014-Nov-13 20:33N 53°46' E 009°24'1312.4
2014-Nov-13 19:32N 53°36' E 009°36'1010.0
2014-Nov-13 18:34N 53°33' E 009°52'4 4.1
2014-Nov-13 17:32N 53°30' E 009°58'0 0.0
2014-Nov-13 16:31N 53°30' E 009°58'0 0.0
2014-Nov-13 15:32N 53°30' E 009°58'0 0.0
2014-Nov-13 14:32N 53°30' E 009°58'0 0.0
2014-Nov-13 13:25N 53°30' E 009°58'0 0.0
2014-Nov-13 12:32N 53°30' E 009°58'0 0.0
2014-Nov-13 11:28N 53°30' E 009°58'0 0.0
2014-Nov-13 10:32N 53°30' E 009°58'0 0.0
2014-Nov-13 09:32N 53°30' E 009°58'0 0.0
2014-Nov-13 08:28N 53°30' E 009°58'0 0.0
2014-Nov-13 07:31N 53°30' E 009°58'0 0.0
2014-Nov-13 06:22N 53°30' E 009°58'0 0.0
2014-Nov-13 05:28N 53°30' E 009°58'0 0.0
2014-Nov-13 04:28N 53°30' E 009°58'0 0.0
2014-Nov-13 03:28N 53°30' E 009°58'0 0.0
2014-Nov-13 02:25N 53°30' E 009°58'0 0.0
2014-Nov-13 01:28N 53°30' E 009°58'0 0.0
2014-Nov-13 00:28N 53°30' E 009°58'0 0.0
2014-Nov-12 23:28N 53°30' E 009°58'0 0.0
2014-Nov-12 22:28N 53°30' E 009°58'0 0.0
2014-Nov-12 21:28N 53°30' E 009°58'0 0.0
2014-Nov-12 20:32N 53°30' E 009°58'0 0.0
2014-Nov-12 19:32N 53°30' E 009°58'0 0.0
2014-Nov-12 18:32N 53°30' E 009°58'0 0.0
2014-Nov-12 17:28N 53°30' E 009°58'0 0.0
2014-Nov-12 16:28N 53°30' E 009°58'3 2.8
2014-Nov-12 15:33N 53°32' E 009°55'1312.2
2014-Nov-12 14:27N 53°37' E 009°34'1112.8
2014-Nov-12 13:33N 53°46' E 009°23'1110.9
2014-Nov-12 12:33N 53°53' E 009°08'1111.0
2014-Nov-12 11:33N 53°50' E 008°50'10 9.6
2014-Nov-12 10:33N 53°57' E 008°38'  

Dump ship's entire track history